createdAt,value
2022-10-22T00:01:01.628Z,101373.03
2022-10-22T00:03:30.815Z,101388.50
2022-10-22T00:05:57.790Z,101388.13
2022-10-22T00:08:24.426Z,101349.78
2022-10-22T00:10:53.746Z,101342.78
2022-10-22T00:13:20.950Z,101391.28
2022-10-22T00:15:50.664Z,101367.00
2022-10-22T00:18:19.094Z,101354.31
2022-10-22T00:20:45.818Z,101376.16
2022-10-22T00:23:12.421Z,101365.50
2022-10-22T00:25:41.734Z,101347.78
2022-10-22T00:28:10.346Z,101332.59
2022-10-22T00:30:38.942Z,101333.50
2022-10-22T00:33:05.664Z,101329.53
2022-10-22T00:35:33.035Z,101312.94
2022-10-22T00:38:00.558Z,101337.66
2022-10-22T00:40:37.774Z,101338.75
2022-10-22T00:43:07.892Z,101372.03
2022-10-22T00:45:39.229Z,101376.13
2022-10-22T00:48:15.005Z,101337.31
2022-10-22T00:50:44.415Z,101378.59
2022-10-22T00:53:22.295Z,101324.31
2022-10-22T00:55:54.277Z,101355.31
2022-10-22T00:58:31.299Z,101341.81
2022-10-22T01:00:58.635Z,101272.78
2022-10-22T01:03:26.146Z,101328.41
2022-10-22T01:06:00.903Z,101321.66
2022-10-22T01:08:46.827Z,101315.03
2022-10-22T01:11:51.201Z,101307.41
2022-10-22T01:14:17.943Z,101282.25
2022-10-22T01:17:09.899Z,101346.75
2022-10-22T01:20:10.664Z,101348.91
2022-10-22T01:23:05.460Z,101330.56
2022-10-22T01:25:46.430Z,101333.91
2022-10-22T01:28:27.929Z,101350.63
2022-10-22T01:30:58.224Z,101345.88
2022-10-22T01:33:28.364Z,101270.66
2022-10-22T01:35:56.279Z,101305.59
2022-10-22T01:38:25.146Z,101259.53
2022-10-22T01:41:01.612Z,101285.94
2022-10-22T01:43:32.834Z,101270.66
2022-10-22T01:46:04.789Z,101236.13
2022-10-22T01:48:54.802Z,101182.50
2022-10-22T01:51:27.518Z,101232.09
2022-10-22T01:53:57.865Z,101210.53
2022-10-22T01:56:31.529Z,101227.63
2022-10-22T01:59:08.361Z,101222.38
2022-10-22T02:02:05.086Z,101158.34
2022-10-22T02:04:48.710Z,101027.69
2022-10-22T02:07:19.762Z,101224.50
2022-10-22T02:09:47.886Z,101227.31
2022-10-22T02:12:17.069Z,101190.38
2022-10-22T02:14:49.457Z,101199.44
2022-10-22T02:17:20.221Z,101195.41
2022-10-22T02:20:03.693Z,101212.53
2022-10-22T02:22:30.910Z,101260.59
2022-10-22T02:24:57.779Z,101195.06
2022-10-22T02:27:39.093Z,101235.13
2022-10-22T02:30:12.375Z,101219.63
2022-10-22T02:33:02.120Z,101171.63
2022-10-22T02:35:36.216Z,101162.63
2022-10-22T02:38:04.474Z,101204.16
2022-10-22T02:40:31.905Z,101133.31
2022-10-22T02:42:58.822Z,101218.88
2022-10-22T02:45:27.764Z,101176.44
2022-10-22T02:47:54.431Z,101213.53
2022-10-22T02:50:21.376Z,101213.09
2022-10-22T02:52:48.307Z,101227.81
2022-10-22T02:55:15.133Z,101206.31
2022-10-22T02:57:42.443Z,101245.53
2022-10-22T03:00:11.500Z,101209.16
2022-10-22T03:02:38.848Z,101227.91
2022-10-22T03:05:10.253Z,101236.78
2022-10-22T03:07:38.247Z,101214.81
2022-10-22T03:10:05.933Z,101176.78
2022-10-22T03:12:33.792Z,101237.91
2022-10-22T03:15:00.598Z,101232.28
2022-10-22T03:17:27.708Z,101257.88
2022-10-22T03:19:54.373Z,101235.78
2022-10-22T03:22:27.259Z,101247.06
2022-10-22T03:24:58.495Z,101232.97
2022-10-22T03:27:28.520Z,101159.09
2022-10-22T03:29:57.405Z,101179.94
2022-10-22T03:32:24.130Z,101207.44
2022-10-22T03:34:57.488Z,101198.13
2022-10-22T03:37:28.960Z,101199.50
2022-10-22T03:39:55.998Z,101177.63
2022-10-22T03:42:25.141Z,101197.72
2022-10-22T03:44:53.011Z,101156.03
2022-10-22T03:47:19.664Z,101206.41
2022-10-22T03:49:46.340Z,101199.91
2022-10-22T03:52:14.818Z,101202.56
2022-10-22T03:54:42.696Z,101211.75
2022-10-22T03:57:10.318Z,101079.09
2022-10-22T03:59:43.079Z,101146.94
2022-10-22T04:02:13.599Z,101202.44
2022-10-22T04:04:40.714Z,101206.59
2022-10-22T04:07:12.104Z,101204.34
2022-10-22T04:09:41.859Z,101124.53
2022-10-22T04:12:09.939Z,101172.41
2022-10-22T04:14:36.784Z,101194.78
2022-10-22T04:17:03.718Z,101202.59
2022-10-22T04:19:33.603Z,101174.94
2022-10-22T04:22:01.074Z,101189.81
2022-10-22T04:24:27.770Z,101198.34
2022-10-22T04:26:55.225Z,101142.50
2022-10-22T04:29:31.494Z,101202.53
2022-10-22T04:31:58.157Z,101225.84
2022-10-22T04:34:27.843Z,101222.88
2022-10-22T04:36:54.455Z,101159.75
2022-10-22T04:39:21.166Z,101207.84
2022-10-22T04:41:47.800Z,101213.88
2022-10-22T04:44:17.205Z,101190.13
2022-10-22T04:46:50.644Z,101215.22
2022-10-22T04:49:17.329Z,101208.28
2022-10-22T04:51:44.098Z,101192.72
2022-10-22T04:54:10.951Z,101151.88
2022-10-22T04:56:37.873Z,101169.41
2022-10-22T04:59:07.446Z,101159.63
2022-10-22T05:01:40.075Z,101155.41
2022-10-22T05:04:13.967Z,101147.75
2022-10-22T05:06:40.683Z,101168.97
2022-10-22T05:09:12.148Z,101140.13
2022-10-22T05:11:41.805Z,101162.81
2022-10-22T05:14:10.181Z,101169.50
2022-10-22T05:16:38.175Z,101081.78
2022-10-22T05:19:05.940Z,101109.31
2022-10-22T05:21:33.262Z,101180.31
2022-10-22T05:24:00.420Z,101177.78
2022-10-22T05:26:28.591Z,101177.97
2022-10-22T05:28:55.654Z,101156.91
2022-10-22T05:31:22.447Z,101080.09
2022-10-22T05:33:49.152Z,101120.69
2022-10-22T05:36:18.591Z,101143.94
2022-10-22T05:38:45.579Z,101107.38
2022-10-22T05:41:27.854Z,101109.91
2022-10-22T05:43:57.182Z,101149.25
2022-10-22T05:46:26.020Z,101149.63
2022-10-22T05:49:04.316Z,101023.22
2022-10-22T05:51:33.443Z,101126.16
2022-10-22T05:54:06.820Z,101045.47
2022-10-22T05:56:34.113Z,101129.31
2022-10-22T06:01:38.016Z,101150.09
2022-10-22T06:04:07.331Z,101102.44
2022-10-22T06:06:50.243Z,101148.84
2022-10-22T06:09:19.526Z,101124.78
2022-10-22T06:11:48.503Z,101157.59
2022-10-22T06:14:15.134Z,101157.16
2022-10-22T06:16:42.062Z,101141.00
2022-10-22T06:19:12.702Z,101165.34
2022-10-22T06:21:40.838Z,101129.31
2022-10-22T06:24:08.155Z,101130.72
2022-10-22T06:26:35.022Z,101136.56
2022-10-22T06:29:02.220Z,101076.69
2022-10-22T06:31:29.521Z,101130.81
2022-10-22T06:34:02.373Z,101127.25
2022-10-22T06:36:30.664Z,101099.66
2022-10-22T06:38:57.739Z,101167.44
2022-10-22T06:41:28.539Z,101166.00
2022-10-22T06:44:01.278Z,101168.28
2022-10-22T06:46:28.360Z,101168.09
2022-10-22T06:48:57.963Z,101103.72
2022-10-22T06:51:27.298Z,101188.06
2022-10-22T06:53:55.561Z,101176.63
2022-10-22T06:56:25.476Z,101175.19
2022-10-22T06:58:54.386Z,101195.97
2022-10-22T07:01:24.136Z,101211.84
2022-10-22T07:03:52.124Z,101202.25
2022-10-22T07:06:19.432Z,101200.97
2022-10-22T07:08:48.094Z,101208.91
2022-10-22T07:11:22.613Z,101214.75
2022-10-22T07:13:53.055Z,101216.03
2022-10-22T07:16:19.922Z,101115.22
2022-10-22T07:18:49.984Z,101227.69
2022-10-22T07:21:20.746Z,101220.97
2022-10-22T07:23:50.150Z,101196.34
2022-10-22T07:26:18.164Z,101191.09
2022-10-22T07:28:44.970Z,101221.72
2022-10-22T07:31:17.244Z,101182.31
2022-10-22T07:33:46.376Z,101173.78
2022-10-22T07:36:22.090Z,101193.41
2022-10-22T07:38:53.882Z,101218.06
2022-10-22T07:41:20.801Z,101196.22
2022-10-22T07:43:50.875Z,101231.88
2022-10-22T07:46:17.738Z,101246.41
2022-10-22T07:48:51.825Z,101216.75
2022-10-22T07:51:19.236Z,101234.31
2022-10-22T07:53:49.184Z,101209.72
2022-10-22T07:56:18.826Z,101224.31
2022-10-22T07:58:45.673Z,101218.25
2022-10-22T08:01:12.542Z,101122.44
2022-10-22T08:03:42.815Z,101198.19
2022-10-22T08:06:13.048Z,101126.94
2022-10-22T08:08:40.082Z,101155.41
2022-10-22T08:11:06.968Z,101062.31
2022-10-22T08:13:33.635Z,101162.78
2022-10-22T08:16:01.132Z,101222.22
2022-10-22T08:18:29.222Z,101253.91
2022-10-22T08:20:56.238Z,101270.28
2022-10-22T08:23:28.567Z,101147.94
2022-10-22T08:25:57.902Z,101206.34
2022-10-22T08:28:29.699Z,101269.88
2022-10-22T08:30:57.294Z,101203.38
2022-10-22T08:33:24.318Z,101233.09
2022-10-22T08:35:53.429Z,101270.31
2022-10-22T08:38:21.337Z,101237.31
2022-10-22T08:41:03.685Z,101200.41
2022-10-22T08:44:03.162Z,101221.97
2022-10-22T08:47:40.962Z,101193.59
2022-10-22T08:50:12.406Z,101202.38
2022-10-22T08:52:42.390Z,101256.66
2022-10-22T08:55:14.681Z,101261.00
2022-10-22T08:58:10.746Z,101201.13
2022-10-22T09:00:56.438Z,101149.00
2022-10-22T09:03:43.159Z,101229.13
2022-10-22T09:06:36.465Z,101244.56
2022-10-22T09:09:15.888Z,101264.16
2022-10-22T09:11:56.775Z,101235.78
2022-10-22T09:14:26.191Z,101213.28
2022-10-22T09:17:20.905Z,101277.31
2022-10-22T09:20:23.847Z,101280.22
2022-10-22T09:23:01.165Z,101267.88
2022-10-22T09:25:31.169Z,101277.28
2022-10-22T09:28:00.675Z,101175.50
2022-10-22T09:30:30.188Z,101211.78
2022-10-22T09:33:06.174Z,101244.34
2022-10-22T09:35:50.974Z,101252.28
2022-10-22T09:38:20.788Z,101263.78
2022-10-22T09:40:58.722Z,101278.41
2022-10-22T09:43:28.068Z,101250.47
2022-10-22T09:46:00.807Z,101276.31
2022-10-22T09:48:34.744Z,101284.88
2022-10-22T09:51:21.520Z,101270.91
2022-10-22T09:53:57.235Z,101282.78
2022-10-22T09:56:37.676Z,101262.34
2022-10-22T09:59:15.429Z,101273.38
2022-10-22T10:01:45.869Z,101293.00
2022-10-22T10:04:14.984Z,101254.59
2022-10-22T10:06:44.733Z,101281.50
2022-10-22T10:09:22.834Z,101281.94
2022-10-22T10:12:15.724Z,101290.50
2022-10-22T10:14:54.521Z,101253.78
2022-10-22T10:18:02.766Z,101295.91
2022-10-22T10:21:04.861Z,101293.38
2022-10-22T10:23:42.072Z,101254.19
2022-10-22T10:26:23.384Z,101278.16
2022-10-22T10:29:10.881Z,101280.06
2022-10-22T10:31:54.470Z,101278.78
2022-10-22T10:34:46.623Z,101302.56
2022-10-22T10:37:16.448Z,101286.72
2022-10-22T10:39:45.923Z,101302.19
2022-10-22T10:42:36.164Z,101302.56
2022-10-22T10:45:36.508Z,101296.94
2022-10-22T10:48:31.406Z,101308.38
2022-10-22T10:51:10.198Z,101302.31
2022-10-22T10:53:57.907Z,101282.13
2022-10-22T10:56:34.394Z,101320.50
2022-10-22T10:59:29.432Z,101244.19
2022-10-22T11:02:30.834Z,101220.84
2022-10-22T11:05:14.472Z,101280.88
2022-10-22T11:07:52.130Z,101306.75
2022-10-22T11:10:37.183Z,101313.63
2022-10-22T11:13:19.815Z,101281.06
2022-10-22T11:16:00.880Z,101249.78
2022-10-22T11:18:37.869Z,101309.00
2022-10-22T11:21:36.185Z,101314.44
2022-10-22T11:24:21.893Z,101319.84
2022-10-22T11:26:58.721Z,101311.63
2022-10-22T11:29:34.509Z,101303.25
2022-10-22T11:32:03.923Z,101221.16
2022-10-22T11:34:48.834Z,101295.34
2022-10-22T11:37:16.932Z,101286.81
2022-10-22T11:39:56.951Z,101267.81
2022-10-22T11:42:34.400Z,101308.03
2022-10-22T11:45:02.626Z,101306.56
2022-10-22T11:47:51.659Z,101231.91
2022-10-22T11:50:26.175Z,101282.50
2022-10-22T11:53:27.973Z,101283.78
2022-10-22T11:55:57.704Z,101291.31
2022-10-22T11:58:39.535Z,101253.34
2022-10-22T12:01:12.875Z,101172.31
2022-10-22T12:03:59.596Z,101295.69
2022-10-22T12:06:55.136Z,101284.41
2022-10-22T12:09:30.417Z,101267.72
2022-10-22T12:12:04.783Z,101293.97
2022-10-22T12:14:51.480Z,101284.81
2022-10-22T12:17:20.972Z,101234.31
2022-10-22T12:20:14.958Z,101260.34
2022-10-22T12:22:43.453Z,101268.09
2022-10-22T12:25:20.152Z,101270.16
2022-10-22T12:27:53.381Z,101267.25
2022-10-22T12:30:23.901Z,101272.69
2022-10-22T12:33:01.796Z,101286.09
2022-10-22T12:35:33.562Z,101224.41
2022-10-22T12:38:15.600Z,101263.97
2022-10-22T12:40:45.971Z,101291.94
2022-10-22T12:43:18.512Z,101286.91
2022-10-22T12:45:47.442Z,101285.91
2022-10-22T12:48:23.794Z,101296.25
2022-10-22T12:51:05.264Z,101278.13
2022-10-22T12:53:39.941Z,101294.31
2022-10-22T12:56:23.181Z,101295.91
2022-10-22T12:59:00.676Z,101120.97
2022-10-22T13:01:38.157Z,101288.88
2022-10-22T13:04:36.983Z,101296.88
2022-10-22T13:07:18.437Z,101210.19
2022-10-22T13:09:59.382Z,101287.31
2022-10-22T13:12:27.901Z,101286.72
2022-10-22T13:15:19.160Z,101293.16
2022-10-22T13:17:54.782Z,101300.22
2022-10-22T13:20:23.562Z,101305.88
2022-10-22T13:23:04.174Z,101307.75
2022-10-22T13:25:33.503Z,101230.25
2022-10-22T13:28:20.050Z,101292.78
2022-10-22T13:31:13.177Z,101276.53
2022-10-22T13:33:43.804Z,101234.06
2022-10-22T13:36:14.956Z,101337.91
2022-10-22T13:38:43.089Z,101327.47
2022-10-22T13:41:36.691Z,101332.91
2022-10-22T13:44:03.379Z,101309.94
2022-10-22T13:46:33.155Z,101333.09
2022-10-22T13:49:00.727Z,101306.22
2022-10-22T13:51:37.872Z,101331.66
2022-10-22T13:54:14.018Z,101291.03
2022-10-22T13:56:41.043Z,101324.66
2022-10-22T13:59:42.877Z,101298.78
2022-10-22T14:05:48.522Z,101343.41
2022-10-22T14:08:32.225Z,101129.50
2022-10-22T14:22:24.139Z,101356.81
2022-10-22T14:24:52.028Z,101346.78
2022-10-22T14:27:18.696Z,101320.13
2022-10-22T14:29:46.591Z,101350.19
2022-10-22T14:32:21.650Z,101349.78
2022-10-22T14:34:48.859Z,101264.22
2022-10-22T14:37:21.463Z,101355.41
2022-10-22T14:39:52.500Z,101328.06
2022-10-22T14:42:25.716Z,101339.75
2022-10-22T14:44:52.484Z,101343.72
2022-10-22T14:47:22.093Z,101388.81
2022-10-22T14:49:51.692Z,101365.19
2022-10-22T14:52:20.308Z,101348.31
2022-10-22T14:54:50.382Z,101330.16
2022-10-22T14:57:17.136Z,101363.75
2022-10-22T14:59:47.059Z,101351.63
2022-10-22T15:02:14.019Z,101346.00
2022-10-22T15:04:41.370Z,101349.75
2022-10-22T15:07:08.167Z,101350.38
2022-10-22T15:09:34.957Z,101374.41
2022-10-22T15:12:01.666Z,101329.72
2022-10-22T15:14:28.320Z,101343.28
2022-10-22T15:16:54.968Z,101368.97
2022-10-22T15:19:21.726Z,101319.63
2022-10-22T15:21:53.683Z,101364.34
2022-10-22T15:24:20.390Z,101358.72
2022-10-22T15:26:47.300Z,101380.81
2022-10-22T15:29:16.627Z,101396.06
2022-10-22T15:31:44.386Z,101390.00
2022-10-22T15:34:11.460Z,101355.06
2022-10-22T15:36:38.290Z,101393.09
2022-10-22T15:39:12.713Z,101286.78
2022-10-22T15:41:39.943Z,101385.91
2022-10-22T15:44:08.672Z,101255.97
2022-10-22T15:46:36.063Z,101398.44
2022-10-22T15:49:02.953Z,101409.69
2022-10-22T15:51:29.698Z,101393.81
2022-10-22T15:53:59.081Z,101382.53
2022-10-22T15:56:28.860Z,101416.13
2022-10-22T15:59:04.149Z,101309.56
2022-10-22T16:01:34.181Z,101327.97
2022-10-22T16:04:04.690Z,101407.13
2022-10-22T16:06:56.565Z,101412.34
2022-10-22T16:09:28.926Z,101410.81
2022-10-22T16:11:56.105Z,101413.34
2022-10-22T16:14:24.282Z,101395.53
2022-10-22T16:16:59.526Z,101408.66
2022-10-22T16:19:26.323Z,101422.44
2022-10-22T16:22:06.635Z,101424.94
2022-10-22T16:24:33.493Z,101449.16
2022-10-22T16:27:00.303Z,101429.22
2022-10-22T16:29:27.374Z,101458.00
2022-10-22T16:32:01.135Z,101433.13
2022-10-22T16:34:28.448Z,101456.56
2022-10-22T16:36:57.255Z,101451.94
2022-10-22T16:39:23.990Z,101466.91
2022-10-22T16:41:50.580Z,101438.84
2022-10-22T16:44:17.233Z,101466.31
2022-10-22T16:46:44.210Z,101466.72
2022-10-22T16:49:11.136Z,101472.63
2022-10-22T16:51:38.172Z,101474.97
2022-10-22T16:54:08.175Z,101483.03
2022-10-22T16:56:38.158Z,101489.53
2022-10-22T16:59:04.849Z,101490.69
2022-10-22T17:01:33.222Z,101427.69
2022-10-22T17:04:01.925Z,101506.94
2022-10-22T17:06:28.714Z,101504.81
2022-10-22T17:08:57.214Z,101491.59
2022-10-22T17:11:25.232Z,101446.56
2022-10-22T17:13:54.222Z,101334.50
2022-10-22T17:16:27.803Z,101523.91
2022-10-22T17:18:55.818Z,101476.34
2022-10-22T17:21:23.785Z,101464.13
2022-10-22T17:23:56.815Z,101511.44
2022-10-22T17:26:26.912Z,101524.38
2022-10-22T17:28:56.834Z,101399.31
2022-10-22T17:31:38.747Z,101524.72
2022-10-22T17:34:08.288Z,101553.94
2022-10-22T17:36:37.566Z,101545.97
2022-10-22T17:39:07.300Z,101510.78
2022-10-22T17:41:36.630Z,101440.75
2022-10-22T17:44:10.952Z,101549.41
2022-10-22T17:46:46.826Z,101559.22
2022-10-22T17:49:17.614Z,101550.38
2022-10-22T17:51:44.622Z,101519.19
2022-10-22T17:54:12.494Z,101553.41
2022-10-22T17:56:40.268Z,101509.34
2022-10-22T17:59:08.323Z,101572.72
2022-10-22T18:01:39.535Z,101538.69
2022-10-22T18:04:08.536Z,101559.84
2022-10-22T18:06:36.185Z,101457.97
2022-10-22T18:09:14.440Z,101581.28
2022-10-22T18:11:44.392Z,101585.03
2022-10-22T18:14:14.071Z,101587.34
2022-10-22T18:16:40.945Z,101558.28
2022-10-22T18:19:09.803Z,101586.13
2022-10-22T18:21:37.077Z,101582.97
2022-10-22T18:24:07.020Z,101554.44
2022-10-22T18:26:35.040Z,101462.50
2022-10-22T18:29:01.910Z,101559.50
2022-10-22T18:31:30.321Z,101557.25
2022-10-22T18:33:57.691Z,101591.56
2022-10-22T18:36:26.476Z,101596.03
2022-10-22T18:39:04.229Z,101565.75
2022-10-22T18:41:33.570Z,101556.06
2022-10-22T18:44:15.191Z,101541.78
2022-10-22T18:46:44.699Z,101603.38
2022-10-22T18:49:18.577Z,101451.47
2022-10-22T18:51:49.118Z,101543.22
2022-10-22T18:54:23.269Z,101393.38
2022-10-22T18:56:50.933Z,101604.97
2022-10-22T18:59:23.840Z,101565.94
2022-10-22T19:01:54.983Z,101611.16
2022-10-22T19:04:22.087Z,101608.78
2022-10-22T19:06:53.707Z,101489.47
2022-10-22T19:09:22.830Z,101589.75
2022-10-22T19:11:49.696Z,101514.31
2022-10-22T19:14:30.260Z,101577.69
2022-10-22T19:16:57.107Z,101595.09
2022-10-22T19:19:24.668Z,101615.97
2022-10-22T19:21:51.723Z,101614.66
2022-10-22T19:24:24.688Z,101578.72
2022-10-22T19:26:51.769Z,101490.72
2022-10-22T19:29:20.907Z,101611.75
2022-10-22T19:31:48.196Z,101562.00
2022-10-22T19:34:14.814Z,101587.63
2022-10-22T19:36:41.746Z,101619.06
2022-10-22T19:39:15.754Z,101610.03
2022-10-22T19:41:44.839Z,101617.91
2022-10-22T19:44:12.996Z,101614.56
2022-10-22T19:46:40.222Z,101623.97
2022-10-22T19:49:10.674Z,101625.38
2022-10-22T19:51:41.061Z,101612.69
2022-10-22T19:54:12.713Z,101639.78
2022-10-22T19:56:45.336Z,101607.03
2022-10-22T19:59:12.322Z,101561.97
2022-10-22T20:01:39.129Z,101607.66
2022-10-22T20:04:06.329Z,101609.69
2022-10-22T20:06:33.096Z,101626.84
2022-10-22T20:09:02.915Z,101646.56
2022-10-22T20:11:30.717Z,101651.31
2022-10-22T20:13:59.012Z,101651.59
2022-10-22T20:16:30.004Z,101601.91
2022-10-22T20:19:01.828Z,101647.59
2022-10-22T20:21:29.117Z,101646.44
2022-10-22T20:23:57.705Z,101627.19
2022-10-22T20:26:28.122Z,101616.25
2022-10-22T20:28:56.417Z,101653.09
2022-10-22T20:31:25.261Z,101615.94
2022-10-22T20:33:52.108Z,101625.22
2022-10-22T20:36:23.794Z,101648.91
2022-10-22T20:38:51.603Z,101629.56
2022-10-22T20:41:24.889Z,101652.50
2022-10-22T20:43:52.432Z,101649.59
2022-10-22T20:46:25.760Z,101659.56
2022-10-22T20:48:56.287Z,101679.47
2022-10-22T20:51:23.061Z,101667.34
2022-10-22T20:53:52.880Z,101635.38
2022-10-22T20:56:23.355Z,101684.88
2022-10-22T20:58:54.069Z,101626.53
2022-10-22T21:01:24.345Z,101611.72
2022-10-22T21:03:54.399Z,101600.81
2022-10-22T21:06:23.328Z,101570.56
2022-10-22T21:08:52.065Z,101627.66
2022-10-22T21:11:23.456Z,101601.81
2022-10-22T21:13:51.808Z,101650.88
2022-10-22T21:16:19.605Z,101659.59
2022-10-22T21:18:47.226Z,101686.22
2022-10-22T21:21:19.545Z,101681.88
2022-10-22T21:23:46.951Z,101698.38
2022-10-22T21:26:13.693Z,101686.28
2022-10-22T21:28:43.093Z,101623.41
2022-10-22T21:31:11.297Z,101706.19
2022-10-22T21:33:42.379Z,101701.66
2022-10-22T21:36:09.640Z,101690.06
2022-10-22T21:38:38.050Z,101703.69
2022-10-22T21:41:06.866Z,101715.66
2022-10-22T21:43:34.018Z,101650.25
2022-10-22T21:46:08.665Z,101707.94
2022-10-22T21:48:39.696Z,101713.00
2022-10-22T21:51:13.511Z,101708.81
2022-10-22T21:53:40.492Z,101720.78
2022-10-22T21:56:08.357Z,101712.69
2022-10-22T21:58:36.368Z,101689.13
2022-10-22T22:01:06.217Z,101703.28
2022-10-22T22:03:34.760Z,101713.53
2022-10-22T22:06:05.269Z,101705.94
2022-10-22T22:08:34.863Z,101659.53
2022-10-22T22:11:30.931Z,101703.97
2022-10-22T22:13:59.820Z,101702.94
2022-10-22T22:16:35.180Z,101699.56
2022-10-22T22:21:32.273Z,101687.13
2022-10-22T22:23:59.580Z,101681.75
2022-10-22T22:26:31.641Z,101709.69
2022-10-22T22:28:59.776Z,101709.53
2022-10-22T22:31:32.389Z,101704.34
2022-10-22T22:34:14.170Z,101707.16
2022-10-22T22:36:42.178Z,101705.66
2022-10-22T22:39:15.477Z,101664.09
2022-10-22T22:41:43.159Z,101633.78
2022-10-22T22:44:10.291Z,101597.47
2022-10-22T22:46:37.431Z,101703.97
2022-10-22T22:49:04.888Z,101691.50
2022-10-22T22:51:32.782Z,101712.38
2022-10-22T22:54:03.400Z,101700.94
2022-10-22T22:56:32.621Z,101700.59
2022-10-22T22:59:02.046Z,101601.31
2022-10-22T23:01:48.893Z,101707.66
2022-10-22T23:04:25.360Z,101711.69
2022-10-22T23:06:53.112Z,101713.22
2022-10-22T23:11:47.382Z,101727.31
2022-10-22T23:14:18.177Z,101688.47
2022-10-22T23:16:47.981Z,101730.34
2022-10-22T23:19:17.775Z,101697.69
2022-10-22T23:21:53.483Z,101715.88
2022-10-22T23:24:25.446Z,101698.38
2022-10-22T23:26:54.200Z,101717.72
2022-10-22T23:29:28.788Z,101713.50
2022-10-22T23:31:55.955Z,101684.09
2022-10-22T23:34:27.751Z,101683.09
2022-10-22T23:36:57.648Z,101651.97
2022-10-22T23:39:27.542Z,101632.59
2022-10-22T23:41:55.347Z,101700.91
2022-10-22T23:44:23.179Z,101702.25
2022-10-22T23:46:50.479Z,101679.03
2022-10-22T23:49:18.006Z,101697.06
2022-10-22T23:51:44.716Z,101717.75
2022-10-22T23:54:17.685Z,101664.78
2022-10-22T23:56:44.431Z,101693.53
2022-10-22T23:59:11.231Z,101699.44
